sensor_id;sensor_type;location;lat;lon;timestamp;P1;durP1;ratioP1;P2;durP2;ratioP2
6475;SDS011;3271;51.910;5.840;2023-08-20T00:02:08;11.00;;;5.97;;
6475;SDS011;3271;51.910;5.840;2023-08-20T00:04:35;8.23;;;5.10;;
6475;SDS011;3271;51.910;5.840;2023-08-20T00:07:02;7.97;;;5.38;;
6475;SDS011;3271;51.910;5.840;2023-08-20T00:09:28;5.97;;;5.22;;
6475;SDS011;3271;51.910;5.840;2023-08-20T00:11:55;8.18;;;5.15;;
6475;SDS011;3271;51.910;5.840;2023-08-20T00:14:22;7.63;;;5.63;;
6475;SDS011;3271;51.910;5.840;2023-08-20T00:17:07;5.57;;;5.10;;
6475;SDS011;3271;51.910;5.840;2023-08-20T00:19:34;7.13;;;5.40;;
6475;SDS011;3271;51.910;5.840;2023-08-20T00:22:00;9.30;;;6.00;;
6475;SDS011;3271;51.910;5.840;2023-08-20T00:24:26;8.68;;;5.63;;
6475;SDS011;3271;51.910;5.840;2023-08-20T00:26:52;7.82;;;5.82;;
6475;SDS011;3271;51.910;5.840;2023-08-20T00:29:18;7.00;;;5.53;;
6475;SDS011;3271;51.910;5.840;2023-08-20T00:31:44;9.13;;;6.50;;
6475;SDS011;3271;51.910;5.840;2023-08-20T00:34:09;7.53;;;5.80;;
6475;SDS011;3271;51.910;5.840;2023-08-20T00:36:35;7.05;;;5.63;;
6475;SDS011;3271;51.910;5.840;2023-08-20T00:39:01;7.25;;;5.53;;
6475;SDS011;3271;51.910;5.840;2023-08-20T00:41:27;8.57;;;5.88;;
6475;SDS011;3271;51.910;5.840;2023-08-20T00:43:53;9.25;;;5.90;;
6475;SDS011;3271;51.910;5.840;2023-08-20T00:46:19;6.57;;;5.78;;
6475;SDS011;3271;51.910;5.840;2023-08-20T00:48:45;6.75;;;5.45;;
6475;SDS011;3271;51.910;5.840;2023-08-20T00:51:11;7.13;;;5.55;;
6475;SDS011;3271;51.910;5.840;2023-08-20T00:53:37;6.63;;;5.40;;
6475;SDS011;3271;51.910;5.840;2023-08-20T00:56:03;10.10;;;5.95;;
6475;SDS011;3271;51.910;5.840;2023-08-20T00:58:29;7.03;;;5.20;;
6475;SDS011;3271;51.910;5.840;2023-08-20T01:00:56;8.82;;;5.55;;
6475;SDS011;3271;51.910;5.840;2023-08-20T01:03:22;8.45;;;5.93;;
6475;SDS011;3271;51.910;5.840;2023-08-20T01:05:50;6.55;;;5.80;;
6475;SDS011;3271;51.910;5.840;2023-08-20T01:08:26;7.13;;;5.38;;
6475;SDS011;3271;51.910;5.840;2023-08-20T01:13:54;7.78;;;5.72;;
6475;SDS011;3271;51.910;5.840;2023-08-20T01:16:20;7.07;;;5.72;;
6475;SDS011;3271;51.910;5.840;2023-08-20T01:18:47;8.95;;;6.18;;
6475;SDS011;3271;51.910;5.840;2023-08-20T01:21:23;7.60;;;5.47;;
6475;SDS011;3271;51.910;5.840;2023-08-20T01:29:10;10.18;;;6.45;;
6475;SDS011;3271;51.910;5.840;2023-08-20T01:31:36;8.23;;;6.10;;
6475;SDS011;3271;51.910;5.840;2023-08-20T01:34:03;6.60;;;5.85;;
6475;SDS011;3271;51.910;5.840;2023-08-20T01:36:29;6.97;;;5.90;;
6475;SDS011;3271;51.910;5.840;2023-08-20T01:38:55;8.50;;;5.88;;
6475;SDS011;3271;51.910;5.840;2023-08-20T01:41:21;5.90;;;5.40;;
6475;SDS011;3271;51.910;5.840;2023-08-20T01:43:46;7.03;;;5.90;;
6475;SDS011;3271;51.910;5.840;2023-08-20T01:46:12;7.68;;;5.53;;
6475;SDS011;3271;51.910;5.840;2023-08-20T01:48:38;8.68;;;5.68;;
6475;SDS011;3271;51.910;5.840;2023-08-20T01:51:05;6.90;;;5.60;;
6475;SDS011;3271;51.910;5.840;2023-08-20T01:53:31;7.07;;;5.47;;
6475;SDS011;3271;51.910;5.840;2023-08-20T01:55:57;9.30;;;5.60;;
6475;SDS011;3271;51.910;5.840;2023-08-20T01:58:23;8.73;;;6.38;;
6475;SDS011;3271;51.910;5.840;2023-08-20T02:00:50;7.82;;;5.60;;
6475;SDS011;3271;51.910;5.840;2023-08-20T02:03:17;7.47;;;5.28;;
6475;SDS011;3271;51.910;5.840;2023-08-20T02:05:43;6.32;;;5.72;;
6475;SDS011;3271;51.910;5.840;2023-08-20T02:08:08;9.45;;;5.75;;
6475;SDS011;3271;51.910;5.840;2023-08-20T02:10:34;7.72;;;5.78;;
6475;SDS011;3271;51.910;5.840;2023-08-20T02:13:00;9.13;;;6.22;;
6475;SDS011;3271;51.910;5.840;2023-08-20T02:15:27;9.20;;;5.75;;
6475;SDS011;3271;51.910;5.840;2023-08-20T02:17:52;5.93;;;5.32;;
6475;SDS011;3271;51.910;5.840;2023-08-20T02:20:18;6.75;;;5.63;;
6475;SDS011;3271;51.910;5.840;2023-08-20T02:22:44;8.57;;;5.78;;
6475;SDS011;3271;51.910;5.840;2023-08-20T02:25:10;6.00;;;5.40;;
6475;SDS011;3271;51.910;5.840;2023-08-20T02:27:36;6.93;;;5.10;;
6475;SDS011;3271;51.910;5.840;2023-08-20T02:30:02;6.60;;;5.65;;
6475;SDS011;3271;51.910;5.840;2023-08-20T02:32:28;7.18;;;5.82;;
6475;SDS011;3271;51.910;5.840;2023-08-20T02:34:56;6.55;;;5.70;;
6475;SDS011;3271;51.910;5.840;2023-08-20T02:37:22;7.22;;;5.25;;
6475;SDS011;3271;51.910;5.840;2023-08-20T02:39:48;7.07;;;5.65;;
6475;SDS011;3271;51.910;5.840;2023-08-20T02:42:14;10.88;;;6.20;;
6475;SDS011;3271;51.910;5.840;2023-08-20T02:44:40;7.70;;;6.40;;
6475;SDS011;3271;51.910;5.840;2023-08-20T02:47:06;7.75;;;5.90;;
6475;SDS011;3271;51.910;5.840;2023-08-20T02:49:32;6.53;;;5.07;;
6475;SDS011;3271;51.910;5.840;2023-08-20T02:51:58;6.53;;;5.88;;
6475;SDS011;3271;51.910;5.840;2023-08-20T02:54:24;6.63;;;6.00;;
6475;SDS011;3271;51.910;5.840;2023-08-20T02:56:50;6.57;;;5.47;;
6475;SDS011;3271;51.910;5.840;2023-08-20T02:59:16;5.78;;;5.05;;
6475;SDS011;3271;51.910;5.840;2023-08-20T03:01:42;9.93;;;7.60;;
6475;SDS011;3271;51.910;5.840;2023-08-20T03:04:08;23.05;;;16.48;;
6475;SDS011;3271;51.910;5.840;2023-08-20T03:06:35;20.75;;;16.55;;
6475;SDS011;3271;51.910;5.840;2023-08-20T03:09:01;28.58;;;21.27;;
6475;SDS011;3271;51.910;5.840;2023-08-20T03:11:29;36.30;;;24.90;;
6475;SDS011;3271;51.910;5.840;2023-08-20T03:13:54;33.30;;;23.15;;
6475;SDS011;3271;51.910;5.840;2023-08-20T03:16:20;33.65;;;24.30;;
6475;SDS011;3271;51.910;5.840;2023-08-20T03:18:46;29.13;;;23.45;;
6475;SDS011;3271;51.910;5.840;2023-08-20T03:21:12;25.67;;;18.30;;
6475;SDS011;3271;51.910;5.840;2023-08-20T03:23:38;22.08;;;17.02;;
6475;SDS011;3271;51.910;5.840;2023-08-20T03:26:04;24.23;;;17.77;;
6475;SDS011;3271;51.910;5.840;2023-08-20T03:28:30;21.08;;;17.10;;
6475;SDS011;3271;51.910;5.840;2023-08-20T03:30:59;19.20;;;16.00;;
6475;SDS011;3271;51.910;5.840;2023-08-20T03:33:25;19.27;;;15.65;;
6475;SDS011;3271;51.910;5.840;2023-08-20T03:35:51;21.77;;;15.30;;
6475;SDS011;3271;51.910;5.840;2023-08-20T03:38:17;20.27;;;15.38;;
6475;SDS011;3271;51.910;5.840;2023-08-20T03:40:43;15.90;;;13.00;;
6475;SDS011;3271;51.910;5.840;2023-08-20T03:43:10;17.15;;;13.20;;
6475;SDS011;3271;51.910;5.840;2023-08-20T03:45:36;11.93;;;10.00;;
6475;SDS011;3271;51.910;5.840;2023-08-20T03:48:02;10.32;;;9.23;;
6475;SDS011;3271;51.910;5.840;2023-08-20T03:50:28;9.05;;;8.07;;
6475;SDS011;3271;51.910;5.840;2023-08-20T03:52:54;9.50;;;7.60;;
6475;SDS011;3271;51.910;5.840;2023-08-20T03:55:20;9.05;;;7.78;;
6475;SDS011;3271;51.910;5.840;2023-08-20T03:57:45;9.60;;;7.82;;
6475;SDS011;3271;51.910;5.840;2023-08-20T04:00:11;10.00;;;7.85;;
6475;SDS011;3271;51.910;5.840;2023-08-20T04:02:37;9.38;;;7.43;;
6475;SDS011;3271;51.910;5.840;2023-08-20T04:05:03;8.77;;;7.43;;
6475;SDS011;3271;51.910;5.840;2023-08-20T04:07:29;9.10;;;7.10;;
6475;SDS011;3271;51.910;5.840;2023-08-20T04:09:55;10.07;;;8.10;;
6475;SDS011;3271;51.910;5.840;2023-08-20T04:12:21;8.30;;;7.10;;
6475;SDS011;3271;51.910;5.840;2023-08-20T04:14:47;8.20;;;6.78;;
6475;SDS011;3271;51.910;5.840;2023-08-20T04:17:13;10.25;;;7.55;;
6475;SDS011;3271;51.910;5.840;2023-08-20T04:19:39;7.60;;;6.80;;
6475;SDS011;3271;51.910;5.840;2023-08-20T04:22:05;7.10;;;6.40;;
6475;SDS011;3271;51.910;5.840;2023-08-20T04:24:31;6.85;;;6.20;;
6475;SDS011;3271;51.910;5.840;2023-08-20T04:26:57;8.82;;;6.43;;
6475;SDS011;3271;51.910;5.840;2023-08-20T04:29:23;8.38;;;6.43;;
6475;SDS011;3271;51.910;5.840;2023-08-20T04:31:49;7.55;;;5.78;;
6475;SDS011;3271;51.910;5.840;2023-08-20T04:34:15;8.00;;;6.35;;
6475;SDS011;3271;51.910;5.840;2023-08-20T04:36:41;8.80;;;6.50;;
6475;SDS011;3271;51.910;5.840;2023-08-20T04:39:06;6.93;;;5.72;;
6475;SDS011;3271;51.910;5.840;2023-08-20T04:41:32;7.57;;;5.78;;
6475;SDS011;3271;51.910;5.840;2023-08-20T04:43:58;6.97;;;5.88;;
6475;SDS011;3271;51.910;5.840;2023-08-20T04:46:24;7.38;;;6.10;;
6475;SDS011;3271;51.910;5.840;2023-08-20T04:48:50;6.10;;;5.40;;
6475;SDS011;3271;51.910;5.840;2023-08-20T04:51:16;6.22;;;5.63;;
6475;SDS011;3271;51.910;5.840;2023-08-20T04:53:42;6.82;;;5.88;;
6475;SDS011;3271;51.910;5.840;2023-08-20T04:56:08;5.80;;;5.20;;
6475;SDS011;3271;51.910;5.840;2023-08-20T04:58:34;6.47;;;5.47;;
6475;SDS011;3271;51.910;5.840;2023-08-20T05:01:00;5.72;;;5.13;;
6475;SDS011;3271;51.910;5.840;2023-08-20T05:03:26;6.93;;;6.25;;
6475;SDS011;3271;51.910;5.840;2023-08-20T05:05:52;5.97;;;5.35;;
6475;SDS011;3271;51.910;5.840;2023-08-20T05:08:18;6.85;;;5.72;;
6475;SDS011;3271;51.910;5.840;2023-08-20T05:10:43;5.57;;;5.00;;
6475;SDS011;3271;51.910;5.840;2023-08-20T05:13:10;7.10;;;6.50;;
6475;SDS011;3271;51.910;5.840;2023-08-20T05:15:36;6.60;;;5.93;;
6475;SDS011;3271;51.910;5.840;2023-08-20T05:18:02;6.40;;;5.80;;
6475;SDS011;3271;51.910;5.840;2023-08-20T05:20:28;6.53;;;5.93;;
6475;SDS011;3271;51.910;5.840;2023-08-20T05:22:54;8.38;;;6.32;;
6475;SDS011;3271;51.910;5.840;2023-08-20T05:25:19;8.52;;;6.57;;
6475;SDS011;3271;51.910;5.840;2023-08-20T05:27:45;7.65;;;6.55;;
6475;SDS011;3271;51.910;5.840;2023-08-20T05:30:11;9.38;;;7.07;;
6475;SDS011;3271;51.910;5.840;2023-08-20T05:32:37;10.05;;;8.18;;
6475;SDS011;3271;51.910;5.840;2023-08-20T05:35:03;10.35;;;7.50;;
6475;SDS011;3271;51.910;5.840;2023-08-20T05:37:30;8.30;;;7.35;;
6475;SDS011;3271;51.910;5.840;2023-08-20T05:39:56;7.50;;;6.82;;
6475;SDS011;3271;51.910;5.840;2023-08-20T05:42:21;9.18;;;7.07;;
6475;SDS011;3271;51.910;5.840;2023-08-20T05:44:47;9.18;;;8.30;;
6475;SDS011;3271;51.910;5.840;2023-08-20T05:47:13;9.35;;;7.97;;
6475;SDS011;3271;51.910;5.840;2023-08-20T05:49:39;12.15;;;7.85;;
6475;SDS011;3271;51.910;5.840;2023-08-20T05:52:05;8.75;;;7.95;;
6475;SDS011;3271;51.910;5.840;2023-08-20T05:54:31;9.57;;;7.70;;
6475;SDS011;3271;51.910;5.840;2023-08-20T05:56:57;10.45;;;7.78;;
6475;SDS011;3271;51.910;5.840;2023-08-20T05:59:24;10.40;;;8.20;;
6475;SDS011;3271;51.910;5.840;2023-08-20T06:01:49;9.13;;;7.80;;
6475;SDS011;3271;51.910;5.840;2023-08-20T06:04:15;8.75;;;7.97;;
6475;SDS011;3271;51.910;5.840;2023-08-20T06:06:43;12.45;;;8.23;;
6475;SDS011;3271;51.910;5.840;2023-08-20T06:09:09;8.63;;;7.72;;
6475;SDS011;3271;51.910;5.840;2023-08-20T06:11:35;10.38;;;7.95;;
6475;SDS011;3271;51.910;5.840;2023-08-20T06:14:01;9.75;;;7.50;;
6475;SDS011;3271;51.910;5.840;2023-08-20T06:16:27;8.43;;;6.80;;
6475;SDS011;3271;51.910;5.840;2023-08-20T06:18:53;9.43;;;6.63;;
6475;SDS011;3271;51.910;5.840;2023-08-20T06:21:19;15.70;;;7.00;;
6475;SDS011;3271;51.910;5.840;2023-08-20T06:23:45;7.93;;;6.72;;
6475;SDS011;3271;51.910;5.840;2023-08-20T06:26:11;8.43;;;5.78;;
6475;SDS011;3271;51.910;5.840;2023-08-20T06:28:37;9.30;;;6.97;;
6475;SDS011;3271;51.910;5.840;2023-08-20T06:31:03;9.00;;;6.45;;
6475;SDS011;3271;51.910;5.840;2023-08-20T06:33:29;10.48;;;6.40;;
6475;SDS011;3271;51.910;5.840;2023-08-20T06:35:55;8.82;;;7.38;;
6475;SDS011;3271;51.910;5.840;2023-08-20T06:38:21;6.60;;;5.80;;
6475;SDS011;3271;51.910;5.840;2023-08-20T06:40:47;6.50;;;4.80;;
6475;SDS011;3271;51.910;5.840;2023-08-20T06:43:13;9.15;;;4.78;;
6475;SDS011;3271;51.910;5.840;2023-08-20T06:45:39;7.10;;;4.43;;
6475;SDS011;3271;51.910;5.840;2023-08-20T06:48:05;6.53;;;4.80;;
6475;SDS011;3271;51.910;5.840;2023-08-20T06:50:31;8.07;;;4.22;;
6475;SDS011;3271;51.910;5.840;2023-08-20T06:52:57;11.07;;;4.80;;
6475;SDS011;3271;51.910;5.840;2023-08-20T06:55:22;6.93;;;3.95;;
6475;SDS011;3271;51.910;5.840;2023-08-20T06:57:48;7.78;;;4.38;;
6475;SDS011;3271;51.910;5.840;2023-08-20T07:00:14;9.10;;;4.00;;
6475;SDS011;3271;51.910;5.840;2023-08-20T07:02:41;6.43;;;3.53;;
6475;SDS011;3271;51.910;5.840;2023-08-20T07:05:07;7.60;;;3.78;;
6475;SDS011;3271;51.910;5.840;2023-08-20T07:07:34;5.70;;;3.00;;
6475;SDS011;3271;51.910;5.840;2023-08-20T07:10:00;7.10;;;2.95;;
6475;SDS011;3271;51.910;5.840;2023-08-20T07:12:26;7.55;;;3.45;;
6475;SDS011;3271;51.910;5.840;2023-08-20T07:14:52;9.48;;;3.30;;
6475;SDS011;3271;51.910;5.840;2023-08-20T07:17:18;6.13;;;3.42;;
6475;SDS011;3271;51.910;5.840;2023-08-20T07:19:44;5.78;;;3.35;;
6475;SDS011;3271;51.910;5.840;2023-08-20T07:22:10;6.22;;;3.58;;
6475;SDS011;3271;51.910;5.840;2023-08-20T07:24:36;4.82;;;2.90;;
6475;SDS011;3271;51.910;5.840;2023-08-20T07:27:02;8.77;;;3.38;;
6475;SDS011;3271;51.910;5.840;2023-08-20T07:29:35;7.57;;;3.20;;
6475;SDS011;3271;51.910;5.840;2023-08-20T07:32:01;6.60;;;4.07;;
6475;SDS011;3271;51.910;5.840;2023-08-20T07:34:28;5.13;;;3.72;;
6475;SDS011;3271;51.910;5.840;2023-08-20T07:36:55;20.80;;;5.82;;
6475;SDS011;3271;51.910;5.840;2023-08-20T07:39:21;8.63;;;3.30;;
6475;SDS011;3271;51.910;5.840;2023-08-20T07:41:47;5.93;;;2.92;;
6475;SDS011;3271;51.910;5.840;2023-08-20T07:44:13;5.25;;;3.28;;
6475;SDS011;3271;51.910;5.840;2023-08-20T07:46:39;5.18;;;2.60;;
6475;SDS011;3271;51.910;5.840;2023-08-20T07:49:05;7.95;;;3.33;;
6475;SDS011;3271;51.910;5.840;2023-08-20T07:51:31;8.85;;;3.45;;
6475;SDS011;3271;51.910;5.840;2023-08-20T07:53:57;10.93;;;3.22;;
6475;SDS011;3271;51.910;5.840;2023-08-20T07:56:24;35.50;;;28.25;;
6475;SDS011;3271;51.910;5.840;2023-08-20T07:58:50;8.70;;;5.30;;
6475;SDS011;3271;51.910;5.840;2023-08-20T08:01:16;7.07;;;3.70;;
6475;SDS011;3271;51.910;5.840;2023-08-20T08:03:42;7.65;;;2.85;;
6475;SDS011;3271;51.910;5.840;2023-08-20T08:06:08;13.85;;;2.78;;
6475;SDS011;3271;51.910;5.840;2023-08-20T08:08:34;6.82;;;2.67;;
6475;SDS011;3271;51.910;5.840;2023-08-20T08:11:00;3.03;;;1.98;;
6475;SDS011;3271;51.910;5.840;2023-08-20T08:13:26;5.88;;;3.03;;
6475;SDS011;3271;51.910;5.840;2023-08-20T08:15:51;3.13;;;2.40;;
6475;SDS011;3271;51.910;5.840;2023-08-20T08:18:20;8.18;;;2.85;;
6475;SDS011;3271;51.910;5.840;2023-08-20T08:20:46;5.80;;;2.95;;
6475;SDS011;3271;51.910;5.840;2023-08-20T08:23:12;6.03;;;2.55;;
6475;SDS011;3271;51.910;5.840;2023-08-20T08:25:38;4.50;;;2.47;;
6475;SDS011;3271;51.910;5.840;2023-08-20T08:28:05;4.38;;;2.47;;
6475;SDS011;3271;51.910;5.840;2023-08-20T08:30:31;3.47;;;2.15;;
6475;SDS011;3271;51.910;5.840;2023-08-20T08:32:57;4.50;;;2.53;;
6475;SDS011;3271;51.910;5.840;2023-08-20T08:35:24;4.82;;;2.78;;
6475;SDS011;3271;51.910;5.840;2023-08-20T08:37:49;4.80;;;2.28;;
6475;SDS011;3271;51.910;5.840;2023-08-20T08:40:15;7.22;;;2.72;;
6475;SDS011;3271;51.910;5.840;2023-08-20T08:42:41;4.50;;;2.08;;
6475;SDS011;3271;51.910;5.840;2023-08-20T08:45:08;6.25;;;2.85;;
6475;SDS011;3271;51.910;5.840;2023-08-20T08:47:35;3.58;;;1.90;;
6475;SDS011;3271;51.910;5.840;2023-08-20T08:50:01;6.90;;;2.00;;
6475;SDS011;3271;51.910;5.840;2023-08-20T08:52:27;4.63;;;2.20;;
6475;SDS011;3271;51.910;5.840;2023-08-20T08:54:53;4.78;;;1.88;;
6475;SDS011;3271;51.910;5.840;2023-08-20T08:57:19;5.45;;;2.22;;
6475;SDS011;3271;51.910;5.840;2023-08-20T08:59:45;2.38;;;1.42;;
6475;SDS011;3271;51.910;5.840;2023-08-20T09:02:12;3.63;;;2.08;;
6475;SDS011;3271;51.910;5.840;2023-08-20T09:04:38;3.53;;;2.10;;
6475;SDS011;3271;51.910;5.840;2023-08-20T09:07:05;3.65;;;1.65;;
6475;SDS011;3271;51.910;5.840;2023-08-20T09:09:31;4.43;;;2.10;;
6475;SDS011;3271;51.910;5.840;2023-08-20T09:11:57;4.90;;;1.50;;
6475;SDS011;3271;51.910;5.840;2023-08-20T09:14:32;3.85;;;1.98;;
6475;SDS011;3271;51.910;5.840;2023-08-20T09:16:58;3.78;;;1.60;;
6475;SDS011;3271;51.910;5.840;2023-08-20T09:19:24;3.55;;;1.60;;
6475;SDS011;3271;51.910;5.840;2023-08-20T09:21:54;3.85;;;1.80;;
6475;SDS011;3271;51.910;5.840;2023-08-20T09:24:25;3.92;;;1.92;;
6475;SDS011;3271;51.910;5.840;2023-08-20T09:26:56;3.90;;;1.80;;
6475;SDS011;3271;51.910;5.840;2023-08-20T09:29:23;44.88;;;5.80;;
6475;SDS011;3271;51.910;5.840;2023-08-20T09:31:49;5.15;;;1.38;;
6475;SDS011;3271;51.910;5.840;2023-08-20T09:34:15;3.42;;;1.88;;
6475;SDS011;3271;51.910;5.840;2023-08-20T09:36:41;5.00;;;1.38;;
6475;SDS011;3271;51.910;5.840;2023-08-20T09:39:08;2.38;;;1.60;;
6475;SDS011;3271;51.910;5.840;2023-08-20T09:41:34;2.70;;;1.73;;
6475;SDS011;3271;51.910;5.840;2023-08-20T09:44:01;4.93;;;1.80;;
6475;SDS011;3271;51.910;5.840;2023-08-20T09:46:27;3.25;;;1.40;;
6475;SDS011;3271;51.910;5.840;2023-08-20T09:48:57;3.75;;;1.83;;
6475;SDS011;3271;51.910;5.840;2023-08-20T09:51:24;3.78;;;1.80;;
6475;SDS011;3271;51.910;5.840;2023-08-20T09:56:30;2.90;;;1.42;;
6475;SDS011;3271;51.910;5.840;2023-08-20T09:58:57;3.70;;;1.33;;
6475;SDS011;3271;51.910;5.840;2023-08-20T10:01:24;4.00;;;1.35;;
6475;SDS011;3271;51.910;5.840;2023-08-20T10:03:50;3.05;;;1.52;;
6475;SDS011;3271;51.910;5.840;2023-08-20T10:06:17;4.13;;;1.15;;
6475;SDS011;3271;51.910;5.840;2023-08-20T10:08:43;4.13;;;2.30;;
6475;SDS011;3271;51.910;5.840;2023-08-20T10:11:11;6.32;;;4.38;;
6475;SDS011;3271;51.910;5.840;2023-08-20T10:13:37;3.30;;;1.92;;
6475;SDS011;3271;51.910;5.840;2023-08-20T10:16:03;1.45;;;0.95;;
6475;SDS011;3271;51.910;5.840;2023-08-20T10:18:29;1.92;;;1.00;;
6475;SDS011;3271;51.910;5.840;2023-08-20T10:20:57;1.17;;;1.08;;
6475;SDS011;3271;51.910;5.840;2023-08-20T10:23:24;2.30;;;1.05;;
6475;SDS011;3271;51.910;5.840;2023-08-20T10:25:53;3.22;;;1.60;;
6475;SDS011;3271;51.910;5.840;2023-08-20T10:28:20;2.00;;;0.95;;
6475;SDS011;3271;51.910;5.840;2023-08-20T10:33:33;2.30;;;1.33;;
6475;SDS011;3271;51.910;5.840;2023-08-20T10:36:06;2.72;;;1.10;;
6475;SDS011;3271;51.910;5.840;2023-08-20T10:38:35;2.83;;;1.25;;
6475;SDS011;3271;51.910;5.840;2023-08-20T10:41:01;2.25;;;0.95;;
6475;SDS011;3271;51.910;5.840;2023-08-20T10:43:37;2.00;;;0.95;;
6475;SDS011;3271;51.910;5.840;2023-08-20T10:46:07;3.55;;;1.25;;
6475;SDS011;3271;51.910;5.840;2023-08-20T10:48:35;8.05;;;5.65;;
6475;SDS011;3271;51.910;5.840;2023-08-20T10:51:11;16.38;;;12.85;;
6475;SDS011;3271;51.910;5.840;2023-08-20T10:53:37;3.50;;;2.22;;
6475;SDS011;3271;51.910;5.840;2023-08-20T10:56:13;7.93;;;5.93;;
6475;SDS011;3271;51.910;5.840;2023-08-20T10:58:43;2.65;;;1.02;;
6475;SDS011;3271;51.910;5.840;2023-08-20T11:01:13;2.60;;;1.23;;
6475;SDS011;3271;51.910;5.840;2023-08-20T11:03:40;3.47;;;1.15;;
6475;SDS011;3271;51.910;5.840;2023-08-20T11:06:06;2.63;;;1.20;;
6475;SDS011;3271;51.910;5.840;2023-08-20T11:08:33;1.98;;;1.10;;
6475;SDS011;3271;51.910;5.840;2023-08-20T11:10:59;3.35;;;1.58;;
6475;SDS011;3271;51.910;5.840;2023-08-20T11:13:25;3.15;;;1.30;;
6475;SDS011;3271;51.910;5.840;2023-08-20T11:15:51;2.33;;;1.30;;
6475;SDS011;3271;51.910;5.840;2023-08-20T11:18:17;1.95;;;1.00;;
6475;SDS011;3271;51.910;5.840;2023-08-20T11:20:43;3.10;;;1.30;;
6475;SDS011;3271;51.910;5.840;2023-08-20T11:23:09;3.03;;;1.17;;
6475;SDS011;3271;51.910;5.840;2023-08-20T11:25:40;2.03;;;0.90;;
6475;SDS011;3271;51.910;5.840;2023-08-20T11:28:07;2.75;;;1.60;;
6475;SDS011;3271;51.910;5.840;2023-08-20T11:30:33;2.50;;;1.00;;
6475;SDS011;3271;51.910;5.840;2023-08-20T11:32:59;2.67;;;1.10;;
6475;SDS011;3271;51.910;5.840;2023-08-20T11:35:25;3.58;;;1.08;;
6475;SDS011;3271;51.910;5.840;2023-08-20T11:37:52;2.05;;;0.90;;
6475;SDS011;3271;51.910;5.840;2023-08-20T11:40:21;2.13;;;0.73;;
6475;SDS011;3271;51.910;5.840;2023-08-20T11:42:48;4.43;;;2.22;;
6475;SDS011;3271;51.910;5.840;2023-08-20T11:45:14;3.17;;;2.55;;
6475;SDS011;3271;51.910;5.840;2023-08-20T11:47:40;4.25;;;3.08;;
6475;SDS011;3271;51.910;5.840;2023-08-20T11:50:07;3.13;;;1.65;;
6475;SDS011;3271;51.910;5.840;2023-08-20T11:52:33;4.38;;;1.40;;
6475;SDS011;3271;51.910;5.840;2023-08-20T11:54:59;4.40;;;1.20;;
6475;SDS011;3271;51.910;5.840;2023-08-20T11:57:26;2.15;;;1.20;;
6475;SDS011;3271;51.910;5.840;2023-08-20T11:59:52;4.57;;;1.30;;
6475;SDS011;3271;51.910;5.840;2023-08-20T12:02:24;3.50;;;1.10;;
6475;SDS011;3271;51.910;5.840;2023-08-20T12:04:50;2.80;;;0.93;;
6475;SDS011;3271;51.910;5.840;2023-08-20T12:07:16;2.83;;;1.27;;
6475;SDS011;3271;51.910;5.840;2023-08-20T12:09:42;2.80;;;1.50;;
6475;SDS011;3271;51.910;5.840;2023-08-20T12:12:08;8.65;;;3.95;;
6475;SDS011;3271;51.910;5.840;2023-08-20T12:14:35;16.02;;;12.80;;
6475;SDS011;3271;51.910;5.840;2023-08-20T12:17:01;4.35;;;2.95;;
6475;SDS011;3271;51.910;5.840;2023-08-20T12:19:28;33.33;;;24.88;;
6475;SDS011;3271;51.910;5.840;2023-08-20T12:21:54;3.88;;;1.30;;
6475;SDS011;3271;51.910;5.840;2023-08-20T12:24:20;5.22;;;1.33;;
6475;SDS011;3271;51.910;5.840;2023-08-20T12:26:46;5.15;;;1.15;;
6475;SDS011;3271;51.910;5.840;2023-08-20T12:29:12;2.58;;;1.17;;
6475;SDS011;3271;51.910;5.840;2023-08-20T12:31:38;3.42;;;1.25;;
6475;SDS011;3271;51.910;5.840;2023-08-20T12:34:04;4.95;;;2.08;;
6475;SDS011;3271;51.910;5.840;2023-08-20T12:36:30;1.35;;;1.08;;
6475;SDS011;3271;51.910;5.840;2023-08-20T12:38:56;2.50;;;1.02;;
6475;SDS011;3271;51.910;5.840;2023-08-20T12:41:23;4.45;;;1.27;;
6475;SDS011;3271;51.910;5.840;2023-08-20T12:43:49;3.90;;;1.10;;
6475;SDS011;3271;51.910;5.840;2023-08-20T12:46:16;3.45;;;1.38;;
6475;SDS011;3271;51.910;5.840;2023-08-20T12:48:42;2.90;;;1.02;;
6475;SDS011;3271;51.910;5.840;2023-08-20T12:51:08;2.35;;;0.95;;
6475;SDS011;3271;51.910;5.840;2023-08-20T12:53:37;2.88;;;1.20;;
6475;SDS011;3271;51.910;5.840;2023-08-20T12:56:03;4.10;;;1.10;;
6475;SDS011;3271;51.910;5.840;2023-08-20T12:58:29;4.03;;;1.42;;
6475;SDS011;3271;51.910;5.840;2023-08-20T13:00:55;1.40;;;0.82;;
6475;SDS011;3271;51.910;5.840;2023-08-20T13:03:21;3.65;;;1.20;;
6475;SDS011;3271;51.910;5.840;2023-08-20T13:05:47;4.70;;;1.30;;
6475;SDS011;3271;51.910;5.840;2023-08-20T13:08:13;3.47;;;0.95;;
6475;SDS011;3271;51.910;5.840;2023-08-20T13:10:43;7.05;;;1.23;;
6475;SDS011;3271;51.910;5.840;2023-08-20T13:13:12;3.42;;;1.17;;
6475;SDS011;3271;51.910;5.840;2023-08-20T13:15:38;1.08;;;0.80;;
6475;SDS011;3271;51.910;5.840;2023-08-20T13:18:04;2.47;;;1.13;;
6475;SDS011;3271;51.910;5.840;2023-08-20T13:20:32;1.92;;;0.82;;
6475;SDS011;3271;51.910;5.840;2023-08-20T13:22:58;3.45;;;1.02;;
6475;SDS011;3271;51.910;5.840;2023-08-20T13:25:24;2.30;;;0.90;;
6475;SDS011;3271;51.910;5.840;2023-08-20T13:27:50;1.67;;;1.13;;
6475;SDS011;3271;51.910;5.840;2023-08-20T13:30:16;3.28;;;1.30;;
6475;SDS011;3271;51.910;5.840;2023-08-20T13:32:42;2.70;;;1.05;;
6475;SDS011;3271;51.910;5.840;2023-08-20T13:35:08;2.50;;;1.10;;
6475;SDS011;3271;51.910;5.840;2023-08-20T13:37:34;5.40;;;1.20;;
6475;SDS011;3271;51.910;5.840;2023-08-20T13:40:00;3.25;;;1.25;;
6475;SDS011;3271;51.910;5.840;2023-08-20T13:42:28;3.13;;;1.27;;
6475;SDS011;3271;51.910;5.840;2023-08-20T13:44:54;4.15;;;0.98;;
6475;SDS011;3271;51.910;5.840;2023-08-20T13:47:20;2.88;;;1.10;;
6475;SDS011;3271;51.910;5.840;2023-08-20T13:49:46;2.53;;;0.90;;
6475;SDS011;3271;51.910;5.840;2023-08-20T13:52:12;3.45;;;1.05;;
6475;SDS011;3271;51.910;5.840;2023-08-20T13:54:38;3.50;;;1.10;;
6475;SDS011;3271;51.910;5.840;2023-08-20T13:57:04;4.07;;;1.08;;
6475;SDS011;3271;51.910;5.840;2023-08-20T13:59:30;5.38;;;1.55;;
6475;SDS011;3271;51.910;5.840;2023-08-20T14:01:56;2.95;;;1.23;;
6475;SDS011;3271;51.910;5.840;2023-08-20T14:04:22;2.08;;;0.90;;
6475;SDS011;3271;51.910;5.840;2023-08-20T14:06:48;2.92;;;1.02;;
6475;SDS011;3271;51.910;5.840;2023-08-20T14:09:14;3.22;;;1.27;;
6475;SDS011;3271;51.910;5.840;2023-08-20T14:11:42;2.85;;;1.42;;
6475;SDS011;3271;51.910;5.840;2023-08-20T14:14:08;3.75;;;1.17;;
6475;SDS011;3271;51.910;5.840;2023-08-20T14:16:34;1.63;;;0.90;;
6475;SDS011;3271;51.910;5.840;2023-08-20T14:19:00;3.28;;;1.10;;
6475;SDS011;3271;51.910;5.840;2023-08-20T14:21:26;2.42;;;1.02;;
6475;SDS011;3271;51.910;5.840;2023-08-20T14:23:52;3.13;;;1.27;;
6475;SDS011;3271;51.910;5.840;2023-08-20T14:26:18;2.97;;;0.80;;
6475;SDS011;3271;51.910;5.840;2023-08-20T14:28:44;2.50;;;1.00;;
6475;SDS011;3271;51.910;5.840;2023-08-20T14:31:10;2.35;;;1.40;;
6475;SDS011;3271;51.910;5.840;2023-08-20T14:33:36;2.88;;;1.17;;
6475;SDS011;3271;51.910;5.840;2023-08-20T14:36:02;4.22;;;1.38;;
6475;SDS011;3271;51.910;5.840;2023-08-20T14:38:29;2.90;;;1.15;;
6475;SDS011;3271;51.910;5.840;2023-08-20T14:40:58;3.30;;;0.93;;
6475;SDS011;3271;51.910;5.840;2023-08-20T14:43:25;3.13;;;1.65;;
6475;SDS011;3271;51.910;5.840;2023-08-20T14:45:51;4.00;;;1.60;;
6475;SDS011;3271;51.910;5.840;2023-08-20T14:48:17;5.57;;;1.60;;
6475;SDS011;3271;51.910;5.840;2023-08-20T14:50:43;2.20;;;0.98;;
6475;SDS011;3271;51.910;5.840;2023-08-20T14:53:09;2.70;;;0.85;;
6475;SDS011;3271;51.910;5.840;2023-08-20T14:55:35;2.50;;;0.85;;
6475;SDS011;3271;51.910;5.840;2023-08-20T14:58:01;2.53;;;0.80;;
6475;SDS011;3271;51.910;5.840;2023-08-20T15:00:29;3.63;;;1.42;;
6475;SDS011;3271;51.910;5.840;2023-08-20T15:02:57;2.70;;;1.10;;
6475;SDS011;3271;51.910;5.840;2023-08-20T15:05:23;3.25;;;1.15;;
6475;SDS011;3271;51.910;5.840;2023-08-20T15:07:48;4.35;;;1.50;;
6475;SDS011;3271;51.910;5.840;2023-08-20T15:10:14;2.75;;;1.52;;
6475;SDS011;3271;51.910;5.840;2023-08-20T15:12:40;2.08;;;1.30;;
6475;SDS011;3271;51.910;5.840;2023-08-20T15:15:07;5.10;;;1.60;;
6475;SDS011;3271;51.910;5.840;2023-08-20T15:17:36;3.03;;;1.25;;
6475;SDS011;3271;51.910;5.840;2023-08-20T15:20:03;3.45;;;2.53;;
6475;SDS011;3271;51.910;5.840;2023-08-20T15:22:35;7.72;;;5.15;;